ESST

Torsby Airport

Sweden
METAR ESST 171750Z 17005KT 140V200 9999 BKN013 OVC017 13/12 Q1014
Observed Flight Rules
Oct-17 @ 17:50 UTC (39 minutes ago) Marginal Visual Flight Rules
Wind Visibility Clouds
170° at 5 knots 10,000+ meters
  • Broken at 1,300' AGL
  • Overcast at 1,700' AGL
Temperatures Readings
Current 13°C / 55°F
Dewpoint 12°C / 54°F
Humidity 94%
Altimeter 29.94" Hg
Pressure 1014 hPa
Elevation 120
METAR ESST 171750Z 17005KT 140V200 9999 BKN013 OVC017 13/12 Q1014
Observed Flight Rules
Oct-17 @ 17:50 UTC
(39 minutes ago)
MVFR
Wind Visibility
170° at 5 knots 10,000+ meters
Clouds
  • Broken at 1,300' AGL
  • Overcast at 1,700' AGL
Temperature Dewpoint
13°C / 55°F 12°C / 54°F
Humidity Altimeter Pressure
94% 29.94" Hg 1014 hPa